sensor_id;sensor_type;location;lat;lon;timestamp;temperature;humidity
78212;SHT31;67490;52.086;5.122;2023-03-01T00:00:24;5.06;65.78
78212;SHT31;67490;52.086;5.122;2023-03-01T00:03:08;5.04;65.65
78212;SHT31;67490;52.086;5.122;2023-03-01T00:05:53;5.03;65.53
78212;SHT31;67490;52.086;5.122;2023-03-01T00:08:37;4.89;65.93
78212;SHT31;67490;52.086;5.122;2023-03-01T00:11:25;4.62;66.44
78212;SHT31;67490;52.086;5.122;2023-03-01T00:14:10;4.65;66.47
78212;SHT31;67490;52.086;5.122;2023-03-01T00:16:55;4.75;66.11
78212;SHT31;67490;52.086;5.122;2023-03-01T00:19:40;4.87;65.73
78212;SHT31;67490;52.086;5.122;2023-03-01T00:22:27;4.59;65.64
78212;SHT31;67490;52.086;5.122;2023-03-01T00:25:12;4.52;66.24
78212;SHT31;67490;52.086;5.122;2023-03-01T00:27:56;4.69;65.89
78212;SHT31;67490;52.086;5.122;2023-03-01T00:30:40;4.60;65.53
78212;SHT31;67490;52.086;5.122;2023-03-01T00:33:26;4.59;65.40
78212;SHT31;67490;52.086;5.122;2023-03-01T00:36:13;4.56;65.50
78212;SHT31;67490;52.086;5.122;2023-03-01T00:38:58;4.55;65.66
78212;SHT31;67490;52.086;5.122;2023-03-01T00:41:43;4.65;65.11
78212;SHT31;67490;52.086;5.122;2023-03-01T00:44:27;4.70;65.03
78212;SHT31;67490;52.086;5.122;2023-03-01T00:47:12;4.69;64.90
78212;SHT31;67490;52.086;5.122;2023-03-01T00:49:59;4.56;65.38
78212;SHT31;67490;52.086;5.122;2023-03-01T00:52:44;4.50;64.98
78212;SHT31;67490;52.086;5.122;2023-03-01T00:55:28;4.28;65.69
78212;SHT31;67490;52.086;5.122;2023-03-01T00:58:12;4.27;66.21
78212;SHT31;67490;52.086;5.122;2023-03-01T01:00:57;4.41;65.73
78212;SHT31;67490;52.086;5.122;2023-03-01T01:03:41;4.42;64.95
78212;SHT31;67490;52.086;5.122;2023-03-01T01:06:29;4.49;64.91
78212;SHT31;67490;52.086;5.122;2023-03-01T01:09:16;4.15;65.86
78212;SHT31;67490;52.086;5.122;2023-03-01T01:12:01;4.14;66.28
78212;SHT31;67490;52.086;5.122;2023-03-01T01:14:45;4.21;66.11
78212;SHT31;67490;52.086;5.122;2023-03-01T01:17:30;4.37;65.81
78212;SHT31;67490;52.086;5.122;2023-03-01T01:20:14;3.98;66.21
78212;SHT31;67490;52.086;5.122;2023-03-01T01:23:00;4.05;66.64
78212;SHT31;67490;52.086;5.122;2023-03-01T01:25:44;4.07;66.83
78212;SHT31;67490;52.086;5.122;2023-03-01T01:28:29;4.28;66.69
78212;SHT31;67490;52.086;5.122;2023-03-01T01:31:13;4.45;65.82
78212;SHT31;67490;52.086;5.122;2023-03-01T01:33:59;4.62;65.41
78212;SHT31;67490;52.086;5.122;2023-03-01T01:36:47;4.70;64.84
78212;SHT31;67490;52.086;5.122;2023-03-01T01:39:34;4.72;64.48
78212;SHT31;67490;52.086;5.122;2023-03-01T01:42:18;4.77;63.79
78212;SHT31;67490;52.086;5.122;2023-03-01T01:45:24;4.73;64.45
78212;SHT31;67490;52.086;5.122;2023-03-01T01:48:14;4.63;64.72
78212;SHT31;67490;52.086;5.122;2023-03-01T01:51:00;4.46;64.88
78212;SHT31;67490;52.086;5.122;2023-03-01T01:53:49;4.52;64.93
78212;SHT31;67490;52.086;5.122;2023-03-01T01:56:38;4.32;65.92
78212;SHT31;67490;52.086;5.122;2023-03-01T01:59:28;4.38;65.52
78212;SHT31;67490;52.086;5.122;2023-03-01T02:02:15;4.44;64.69
78212;SHT31;67490;52.086;5.122;2023-03-01T02:05:06;4.46;65.10
78212;SHT31;67490;52.086;5.122;2023-03-01T02:07:56;4.34;65.47
78212;SHT31;67490;52.086;5.122;2023-03-01T02:10:42;4.39;65.28
78212;SHT31;67490;52.086;5.122;2023-03-01T02:13:28;4.34;65.02
78212;SHT31;67490;52.086;5.122;2023-03-01T02:16:15;4.28;65.83
78212;SHT31;67490;52.086;5.122;2023-03-01T02:19:01;4.18;66.35
78212;SHT31;67490;52.086;5.122;2023-03-01T02:21:59;4.18;65.91
78212;SHT31;67490;52.086;5.122;2023-03-01T02:24:55;4.08;66.13
78212;SHT31;67490;52.086;5.122;2023-03-01T02:27:51;4.01;66.61
78212;SHT31;67490;52.086;5.122;2023-03-01T02:30:40;4.18;65.76
78212;SHT31;67490;52.086;5.122;2023-03-01T02:33:45;4.04;66.60
78212;SHT31;67490;52.086;5.122;2023-03-01T02:36:35;4.00;66.27
78212;SHT31;67490;52.086;5.122;2023-03-01T02:39:26;4.00;66.20
78212;SHT31;67490;52.086;5.122;2023-03-01T02:42:17;3.81;67.45
78212;SHT31;67490;52.086;5.122;2023-03-01T02:45:05;3.83;67.24
78212;SHT31;67490;52.086;5.122;2023-03-01T02:47:53;3.93;67.03
78212;SHT31;67490;52.086;5.122;2023-03-01T02:50:55;3.98;66.68
78212;SHT31;67490;52.086;5.122;2023-03-01T02:53:55;4.04;66.25
78212;SHT31;67490;52.086;5.122;2023-03-01T02:56:44;3.98;66.39
78212;SHT31;67490;52.086;5.122;2023-03-01T02:59:35;3.79;67.14
78212;SHT31;67490;52.086;5.122;2023-03-01T03:02:25;3.93;66.82
78212;SHT31;67490;52.086;5.122;2023-03-01T03:05:26;4.01;65.85
78212;SHT31;67490;52.086;5.122;2023-03-01T03:08:10;4.07;65.08
78212;SHT31;67490;52.086;5.122;2023-03-01T03:10:55;4.00;65.77
78212;SHT31;67490;52.086;5.122;2023-03-01T03:13:40;4.01;65.87
78212;SHT31;67490;52.086;5.122;2023-03-01T03:16:32;3.93;66.36
78212;SHT31;67490;52.086;5.122;2023-03-01T03:19:17;3.81;66.43
78212;SHT31;67490;52.086;5.122;2023-03-01T03:22:03;3.87;66.25
78212;SHT31;67490;52.086;5.122;2023-03-01T03:24:47;3.87;66.17
78212;SHT31;67490;52.086;5.122;2023-03-01T03:27:32;4.00;65.88
78212;SHT31;67490;52.086;5.122;2023-03-01T03:30:18;4.01;65.87
78212;SHT31;67490;52.086;5.122;2023-03-01T03:33:03;4.02;65.64
78212;SHT31;67490;52.086;5.122;2023-03-01T03:35:49;4.09;65.43
78212;SHT31;67490;52.086;5.122;2023-03-01T03:38:35;4.15;64.68
78212;SHT31;67490;52.086;5.122;2023-03-01T03:41:20;4.17;64.73
78212;SHT31;67490;52.086;5.122;2023-03-01T03:44:04;4.17;64.89
78212;SHT31;67490;52.086;5.122;2023-03-01T03:46:49;4.15;64.97
78212;SHT31;67490;52.086;5.122;2023-03-01T03:49:33;4.17;65.06
78212;SHT31;67490;52.086;5.122;2023-03-01T03:52:18;4.18;64.68
78212;SHT31;67490;52.086;5.122;2023-03-01T03:55:05;4.11;64.57
78212;SHT31;67490;52.086;5.122;2023-03-01T03:57:57;4.12;65.00
78212;SHT31;67490;52.086;5.122;2023-03-01T04:00:44;4.11;65.21
78212;SHT31;67490;52.086;5.122;2023-03-01T04:03:30;4.24;64.85
78212;SHT31;67490;52.086;5.122;2023-03-01T04:06:14;4.41;63.94
78212;SHT31;67490;52.086;5.122;2023-03-01T04:08:59;4.27;63.92
78212;SHT31;67490;52.086;5.122;2023-03-01T04:11:47;4.18;64.36
78212;SHT31;67490;52.086;5.122;2023-03-01T04:14:32;4.17;64.64
78212;SHT31;67490;52.086;5.122;2023-03-01T04:17:17;4.17;62.83
78212;SHT31;67490;52.086;5.122;2023-03-01T04:20:03;4.04;64.17
78212;SHT31;67490;52.086;5.122;2023-03-01T04:22:51;3.95;64.20
78212;SHT31;67490;52.086;5.122;2023-03-01T04:25:37;3.97;64.51
78212;SHT31;67490;52.086;5.122;2023-03-01T04:28:26;4.07;64.22
78212;SHT31;67490;52.086;5.122;2023-03-01T04:31:13;3.83;64.31
78212;SHT31;67490;52.086;5.122;2023-03-01T04:34:00;3.63;65.25
78212;SHT31;67490;52.086;5.122;2023-03-01T04:36:44;3.60;65.36
78212;SHT31;67490;52.086;5.122;2023-03-01T04:39:29;3.59;65.50
78212;SHT31;67490;52.086;5.122;2023-03-01T04:42:14;3.67;65.53
78212;SHT31;67490;52.086;5.122;2023-03-01T04:44:59;3.80;65.10
78212;SHT31;67490;52.086;5.122;2023-03-01T04:47:45;3.88;65.11
78212;SHT31;67490;52.086;5.122;2023-03-01T04:50:31;3.91;64.93
78212;SHT31;67490;52.086;5.122;2023-03-01T04:53:15;3.95;64.81
78212;SHT31;67490;52.086;5.122;2023-03-01T04:55:59;4.01;64.67
78212;SHT31;67490;52.086;5.122;2023-03-01T04:58:44;4.01;64.19
78212;SHT31;67490;52.086;5.122;2023-03-01T05:01:30;3.98;64.05
78212;SHT31;67490;52.086;5.122;2023-03-01T05:04:15;4.01;64.32
78212;SHT31;67490;52.086;5.122;2023-03-01T05:06:59;4.01;63.90
78212;SHT31;67490;52.086;5.122;2023-03-01T05:09:44;4.08;63.78
78212;SHT31;67490;52.086;5.122;2023-03-01T05:12:29;4.08;63.57
78212;SHT31;67490;52.086;5.122;2023-03-01T05:15:14;4.11;63.56
78212;SHT31;67490;52.086;5.122;2023-03-01T05:18:00;4.09;63.62
78212;SHT31;67490;52.086;5.122;2023-03-01T05:20:44;4.05;63.81
78212;SHT31;67490;52.086;5.122;2023-03-01T05:23:28;4.09;63.61
78212;SHT31;67490;52.086;5.122;2023-03-01T05:26:13;4.09;63.58
78212;SHT31;67490;52.086;5.122;2023-03-01T05:28:57;4.14;63.26
78212;SHT31;67490;52.086;5.122;2023-03-01T05:31:42;4.17;63.31
78212;SHT31;67490;52.086;5.122;2023-03-01T05:34:29;4.09;64.13
78212;SHT31;67490;52.086;5.122;2023-03-01T05:37:14;4.09;64.28
78212;SHT31;67490;52.086;5.122;2023-03-01T05:39:58;4.05;63.90
78212;SHT31;67490;52.086;5.122;2023-03-01T05:42:43;4.05;64.04
78212;SHT31;67490;52.086;5.122;2023-03-01T05:45:28;4.07;64.48
78212;SHT31;67490;52.086;5.122;2023-03-01T05:48:13;3.97;65.67
78212;SHT31;67490;52.086;5.122;2023-03-01T05:51:00;3.94;65.17
78212;SHT31;67490;52.086;5.122;2023-03-01T05:53:44;3.87;64.25
78212;SHT31;67490;52.086;5.122;2023-03-01T05:56:28;3.71;66.70
78212;SHT31;67490;52.086;5.122;2023-03-01T05:59:13;3.56;65.50
78212;SHT31;67490;52.086;5.122;2023-03-01T06:01:58;3.56;65.26
78212;SHT31;67490;52.086;5.122;2023-03-01T06:04:43;3.56;64.90
78212;SHT31;67490;52.086;5.122;2023-03-01T06:07:28;3.46;65.77
78212;SHT31;67490;52.086;5.122;2023-03-01T06:10:14;3.36;65.53
78212;SHT31;67490;52.086;5.122;2023-03-01T06:12:58;3.32;66.00
78212;SHT31;67490;52.086;5.122;2023-03-01T06:15:42;3.35;67.29
78212;SHT31;67490;52.086;5.122;2023-03-01T06:18:27;3.43;66.78
78212;SHT31;67490;52.086;5.122;2023-03-01T06:21:11;3.52;64.75
78212;SHT31;67490;52.086;5.122;2023-03-01T06:23:57;3.46;65.39
78212;SHT31;67490;52.086;5.122;2023-03-01T06:26:41;3.57;65.17
78212;SHT31;67490;52.086;5.122;2023-03-01T06:29:26;3.67;65.45
78212;SHT31;67490;52.086;5.122;2023-03-01T06:32:10;3.73;63.65
78212;SHT31;67490;52.086;5.122;2023-03-01T06:34:54;3.74;64.33
78212;SHT31;67490;52.086;5.122;2023-03-01T06:37:39;3.76;64.05
78212;SHT31;67490;52.086;5.122;2023-03-01T06:40:25;3.86;63.03
78212;SHT31;67490;52.086;5.122;2023-03-01T06:43:09;3.71;63.27
78212;SHT31;67490;52.086;5.122;2023-03-01T06:45:54;3.59;63.90
78212;SHT31;67490;52.086;5.122;2023-03-01T06:48:38;3.62;63.85
78212;SHT31;67490;52.086;5.122;2023-03-01T06:51:22;3.50;64.81
78212;SHT31;67490;52.086;5.122;2023-03-01T06:54:07;3.67;64.09
78212;SHT31;67490;52.086;5.122;2023-03-01T06:56:53;3.73;63.71
78212;SHT31;67490;52.086;5.122;2023-03-01T06:59:37;3.77;63.34
78212;SHT31;67490;52.086;5.122;2023-03-01T07:02:22;3.77;62.89
78212;SHT31;67490;52.086;5.122;2023-03-01T07:05:07;3.77;62.79
78212;SHT31;67490;52.086;5.122;2023-03-01T07:07:53;3.73;63.34
78212;SHT31;67490;52.086;5.122;2023-03-01T07:10:37;3.46;64.54
78212;SHT31;67490;52.086;5.122;2023-03-01T07:13:23;3.33;64.73
78212;SHT31;67490;52.086;5.122;2023-03-01T07:16:08;3.49;64.29
78212;SHT31;67490;52.086;5.122;2023-03-01T07:18:53;3.40;64.57
78212;SHT31;67490;52.086;5.122;2023-03-01T07:21:38;3.53;64.04
78212;SHT31;67490;52.086;5.122;2023-03-01T07:24:22;3.62;64.38
78212;SHT31;67490;52.086;5.122;2023-03-01T07:27:07;3.62;64.32
78212;SHT31;67490;52.086;5.122;2023-03-01T07:29:53;3.46;64.67
78212;SHT31;67490;52.086;5.122;2023-03-01T07:32:37;3.40;65.20
78212;SHT31;67490;52.086;5.122;2023-03-01T07:35:23;3.36;65.60
78212;SHT31;67490;52.086;5.122;2023-03-01T07:38:09;3.48;65.64
78212;SHT31;67490;52.086;5.122;2023-03-01T07:40:53;3.62;65.10
78212;SHT31;67490;52.086;5.122;2023-03-01T07:43:38;3.64;64.37
78212;SHT31;67490;52.086;5.122;2023-03-01T07:46:23;3.76;64.29
78212;SHT31;67490;52.086;5.122;2023-03-01T07:49:09;3.71;63.62
78212;SHT31;67490;52.086;5.122;2023-03-01T07:51:53;3.74;63.54
78212;SHT31;67490;52.086;5.122;2023-03-01T07:54:38;3.77;63.64
78212;SHT31;67490;52.086;5.122;2023-03-01T07:57:22;3.91;63.09
78212;SHT31;67490;52.086;5.122;2023-03-01T08:00:11;4.00;62.52
78212;SHT31;67490;52.086;5.122;2023-03-01T08:03:00;3.79;63.57
78212;SHT31;67490;52.086;5.122;2023-03-01T08:05:44;4.00;62.78
78212;SHT31;67490;52.086;5.122;2023-03-01T08:08:30;4.09;61.81
78212;SHT31;67490;52.086;5.122;2023-03-01T08:11:15;4.25;61.37
78212;SHT31;67490;52.086;5.122;2023-03-01T08:13:59;4.29;61.33
78212;SHT31;67490;52.086;5.122;2023-03-01T08:16:44;4.48;60.59
78212;SHT31;67490;52.086;5.122;2023-03-01T08:19:30;4.55;60.87
78212;SHT31;67490;52.086;5.122;2023-03-01T08:22:15;4.52;63.39
78212;SHT31;67490;52.086;5.122;2023-03-01T08:24:59;4.72;62.15
78212;SHT31;67490;52.086;5.122;2023-03-01T08:27:43;4.87;64.01
78212;SHT31;67490;52.086;5.122;2023-03-01T08:30:28;5.06;58.83
78212;SHT31;67490;52.086;5.122;2023-03-01T08:33:13;5.10;59.25
78212;SHT31;67490;52.086;5.122;2023-03-01T08:36:06;5.08;59.14
78212;SHT31;67490;52.086;5.122;2023-03-01T08:38:50;5.08;55.45
78212;SHT31;67490;52.086;5.122;2023-03-01T08:41:35;4.93;56.10
78212;SHT31;67490;52.086;5.122;2023-03-01T08:44:20;4.77;56.79
78212;SHT31;67490;52.086;5.122;2023-03-01T08:47:05;5.01;57.50
78212;SHT31;67490;52.086;5.122;2023-03-01T08:49:50;5.18;56.52
78212;SHT31;67490;52.086;5.122;2023-03-01T08:52:36;5.23;56.14
78212;SHT31;67490;52.086;5.122;2023-03-01T08:55:20;5.13;59.08
78212;SHT31;67490;52.086;5.122;2023-03-01T08:58:05;5.17;59.17
78212;SHT31;67490;52.086;5.122;2023-03-01T09:00:50;5.20;55.83
78212;SHT31;67490;52.086;5.122;2023-03-01T09:03:34;5.18;56.77
78212;SHT31;67490;52.086;5.122;2023-03-01T09:06:19;5.26;54.33
78212;SHT31;67490;52.086;5.122;2023-03-01T09:09:05;5.32;54.10
78212;SHT31;67490;52.086;5.122;2023-03-01T09:11:50;5.39;54.49
78212;SHT31;67490;52.086;5.122;2023-03-01T09:14:35;5.58;56.66
78212;SHT31;67490;52.086;5.122;2023-03-01T09:17:21;5.65;55.04
78212;SHT31;67490;52.086;5.122;2023-03-01T09:20:06;5.82;54.12
78212;SHT31;67490;52.086;5.122;2023-03-01T09:22:51;5.90;54.11
78212;SHT31;67490;52.086;5.122;2023-03-01T09:25:36;6.02;53.57
78212;SHT31;67490;52.086;5.122;2023-03-01T09:28:21;5.99;53.56
78212;SHT31;67490;52.086;5.122;2023-03-01T09:31:07;5.96;53.14
78212;SHT31;67490;52.086;5.122;2023-03-01T09:33:53;6.00;54.85
78212;SHT31;67490;52.086;5.122;2023-03-01T09:36:38;6.27;53.50
78212;SHT31;67490;52.086;5.122;2023-03-01T09:39:23;6.37;55.91
78212;SHT31;67490;52.086;5.122;2023-03-01T09:42:13;6.41;50.88
78212;SHT31;67490;52.086;5.122;2023-03-01T09:45:02;6.61;50.79
78212;SHT31;67490;52.086;5.122;2023-03-01T09:47:47;6.52;51.60
78212;SHT31;67490;52.086;5.122;2023-03-01T09:50:35;6.63;51.75
78212;SHT31;67490;52.086;5.122;2023-03-01T09:53:28;6.65;52.63
78212;SHT31;67490;52.086;5.122;2023-03-01T09:56:22;6.69;52.36
78212;SHT31;67490;52.086;5.122;2023-03-01T09:59:25;6.78;52.30
78212;SHT31;67490;52.086;5.122;2023-03-01T10:02:23;6.91;51.21
78212;SHT31;67490;52.086;5.122;2023-03-01T10:05:29;6.69;50.19
78212;SHT31;67490;52.086;5.122;2023-03-01T10:08:31;6.68;50.39
78212;SHT31;67490;52.086;5.122;2023-03-01T10:11:22;6.79;50.13
78212;SHT31;67490;52.086;5.122;2023-03-01T10:14:22;6.72;50.93
78212;SHT31;67490;52.086;5.122;2023-03-01T10:17:17;6.78;51.13
78212;SHT31;67490;52.086;5.122;2023-03-01T10:20:16;6.85;50.54
78212;SHT31;67490;52.086;5.122;2023-03-01T10:23:01;6.93;50.53
78212;SHT31;67490;52.086;5.122;2023-03-01T10:26:02;6.98;48.06
78212;SHT31;67490;52.086;5.122;2023-03-01T10:29:02;6.57;49.67
78212;SHT31;67490;52.086;5.122;2023-03-01T10:31:50;6.68;49.24
78212;SHT31;67490;52.086;5.122;2023-03-01T10:34:36;6.82;48.26
78212;SHT31;67490;52.086;5.122;2023-03-01T10:37:21;6.79;48.75
78212;SHT31;67490;52.086;5.122;2023-03-01T10:40:09;6.82;49.06
78212;SHT31;67490;52.086;5.122;2023-03-01T10:42:58;6.99;47.99
78212;SHT31;67490;52.086;5.122;2023-03-01T10:45:43;6.99;48.83
78212;SHT31;67490;52.086;5.122;2023-03-01T10:48:29;6.92;48.69
78212;SHT31;67490;52.086;5.122;2023-03-01T10:51:17;6.93;48.51
78212;SHT31;67490;52.086;5.122;2023-03-01T10:54:18;7.16;47.91
78212;SHT31;67490;52.086;5.122;2023-03-01T10:57:05;6.95;49.28
78212;SHT31;67490;52.086;5.122;2023-03-01T11:00:02;7.17;48.48
78212;SHT31;67490;52.086;5.122;2023-03-01T11:02:50;7.28;48.04
78212;SHT31;67490;52.086;5.122;2023-03-01T11:05:36;7.43;48.14
78212;SHT31;67490;52.086;5.122;2023-03-01T11:08:37;7.57;48.49
78212;SHT31;67490;52.086;5.122;2023-03-01T11:11:34;7.40;48.40
78212;SHT31;67490;52.086;5.122;2023-03-01T11:14:22;7.37;49.31
78212;SHT31;67490;52.086;5.122;2023-03-01T11:17:16;7.15;49.61
78212;SHT31;67490;52.086;5.122;2023-03-01T11:20:05;7.23;48.28
78212;SHT31;67490;52.086;5.122;2023-03-01T11:22:54;7.16;47.54
78212;SHT31;67490;52.086;5.122;2023-03-01T11:25:42;7.31;47.87
78212;SHT31;67490;52.086;5.122;2023-03-01T11:28:29;7.47;47.70
78212;SHT31;67490;52.086;5.122;2023-03-01T11:31:15;7.71;47.07
78212;SHT31;67490;52.086;5.122;2023-03-01T11:34:10;7.54;45.67
78212;SHT31;67490;52.086;5.122;2023-03-01T11:36:59;7.77;43.93
78212;SHT31;67490;52.086;5.122;2023-03-01T11:39:53;8.06;46.26
78212;SHT31;67490;52.086;5.122;2023-03-01T11:42:56;8.09;46.73
78212;SHT31;67490;52.086;5.122;2023-03-01T11:46:02;8.19;43.72
78212;SHT31;67490;52.086;5.122;2023-03-01T11:49:02;8.12;44.74
78212;SHT31;67490;52.086;5.122;2023-03-01T11:51:58;7.78;45.46
78212;SHT31;67490;52.086;5.122;2023-03-01T11:55:00;7.88;43.57
78212;SHT31;67490;52.086;5.122;2023-03-01T11:58:12;7.87;43.79
78212;SHT31;67490;52.086;5.122;2023-03-01T12:01:19;7.85;44.28
78212;SHT31;67490;52.086;5.122;2023-03-01T12:04:36;8.02;44.65
78212;SHT31;67490;52.086;5.122;2023-03-01T12:07:30;7.92;42.36
78212;SHT31;67490;52.086;5.122;2023-03-01T12:10:23;8.08;42.69
78212;SHT31;67490;52.086;5.122;2023-03-01T12:16:38;7.92;43.69
78212;SHT31;67490;52.086;5.122;2023-03-01T12:19:43;7.89;43.01
78212;SHT31;67490;52.086;5.122;2023-03-01T12:22:30;8.05;42.65
78212;SHT31;67490;52.086;5.122;2023-03-01T12:25:33;8.39;41.88
78212;SHT31;67490;52.086;5.122;2023-03-01T12:35:05;8.28;41.91
78212;SHT31;67490;52.086;5.122;2023-03-01T12:38:00;8.54;40.80
78212;SHT31;67490;52.086;5.122;2023-03-01T12:41:26;8.59;40.15
78212;SHT31;67490;52.086;5.122;2023-03-01T12:44:29;8.39;41.03
78212;SHT31;67490;52.086;5.122;2023-03-01T12:47:31;8.40;40.22
78212;SHT31;67490;52.086;5.122;2023-03-01T12:50:23;8.39;40.24
78212;SHT31;67490;52.086;5.122;2023-03-01T12:53:16;8.45;39.42
78212;SHT31;67490;52.086;5.122;2023-03-01T12:56:08;8.39;39.37
78212;SHT31;67490;52.086;5.122;2023-03-01T12:59:03;8.46;40.10
78212;SHT31;67490;52.086;5.122;2023-03-01T13:01:56;8.71;39.41
78212;SHT31;67490;52.086;5.122;2023-03-01T13:04:54;8.76;39.11
78212;SHT31;67490;52.086;5.122;2023-03-01T13:07:49;8.64;39.58
78212;SHT31;67490;52.086;5.122;2023-03-01T13:10:46;8.50;40.05
78212;SHT31;67490;52.086;5.122;2023-03-01T13:13:33;8.54;39.93
78212;SHT31;67490;52.086;5.122;2023-03-01T13:16:38;8.60;39.81
78212;SHT31;67490;52.086;5.122;2023-03-01T13:19:25;8.56;39.82
78212;SHT31;67490;52.086;5.122;2023-03-01T13:22:28;8.78;38.47
78212;SHT31;67490;52.086;5.122;2023-03-01T13:25:17;8.89;38.51
78212;SHT31;67490;52.086;5.122;2023-03-01T13:28:45;8.81;38.49
78212;SHT31;67490;52.086;5.122;2023-03-01T13:32:00;8.63;37.71
78212;SHT31;67490;52.086;5.122;2023-03-01T13:34:53;8.71;38.75
78212;SHT31;67490;52.086;5.122;2023-03-01T13:37:38;8.78;39.47
78212;SHT31;67490;52.086;5.122;2023-03-01T13:43:43;8.73;40.32
78212;SHT31;67490;52.086;5.122;2023-03-01T13:46:29;8.92;39.81
78212;SHT31;67490;52.086;5.122;2023-03-01T13:49:17;9.04;39.54
78212;SHT31;67490;52.086;5.122;2023-03-01T13:52:03;9.05;38.40
78212;SHT31;67490;52.086;5.122;2023-03-01T13:54:49;9.08;38.40
78212;SHT31;67490;52.086;5.122;2023-03-01T13:57:36;8.88;39.61
78212;SHT31;67490;52.086;5.122;2023-03-01T14:00:30;9.00;38.52
78212;SHT31;67490;52.086;5.122;2023-03-01T14:03:18;9.10;38.42
78212;SHT31;67490;52.086;5.122;2023-03-01T14:06:07;8.91;37.79
78212;SHT31;67490;52.086;5.122;2023-03-01T14:09:02;8.78;36.07
78212;SHT31;67490;52.086;5.122;2023-03-01T14:12:14;8.87;37.40
78212;SHT31;67490;52.086;5.122;2023-03-01T14:15:04;8.85;35.98
78212;SHT31;67490;52.086;5.122;2023-03-01T14:18:02;9.01;36.33
78212;SHT31;67490;52.086;5.122;2023-03-01T14:20:48;9.11;36.23
78212;SHT31;67490;52.086;5.122;2023-03-01T14:23:40;9.10;36.39
78212;SHT31;67490;52.086;5.122;2023-03-01T14:26:26;9.14;37.66
78212;SHT31;67490;52.086;5.122;2023-03-01T14:29:24;9.05;37.76
78212;SHT31;67490;52.086;5.122;2023-03-01T14:32:19;8.91;38.79
78212;SHT31;67490;52.086;5.122;2023-03-01T14:35:20;9.22;38.23
78212;SHT31;67490;52.086;5.122;2023-03-01T14:38:05;9.28;38.40
78212;SHT31;67490;52.086;5.122;2023-03-01T14:40:57;9.22;36.80
78212;SHT31;67490;52.086;5.122;2023-03-01T14:43:45;9.21;36.52
78212;SHT31;67490;52.086;5.122;2023-03-01T14:46:34;8.89;38.04
78212;SHT31;67490;52.086;5.122;2023-03-01T14:49:23;9.18;38.24
78212;SHT31;67490;52.086;5.122;2023-03-01T14:52:20;9.00;37.82
78212;SHT31;67490;52.086;5.122;2023-03-01T14:55:13;9.08;37.45
78212;SHT31;67490;52.086;5.122;2023-03-01T14:57:59;8.70;38.16
78212;SHT31;67490;52.086;5.122;2023-03-01T15:00:50;8.74;37.92
78212;SHT31;67490;52.086;5.122;2023-03-01T15:03:38;8.87;37.96
78212;SHT31;67490;52.086;5.122;2023-03-01T15:06:24;8.98;37.80
78212;SHT31;67490;52.086;5.122;2023-03-01T15:09:15;9.03;38.79
78212;SHT31;67490;52.086;5.122;2023-03-01T15:12:01;9.07;38.31
78212;SHT31;67490;52.086;5.122;2023-03-01T15:15:30;8.97;38.19
78212;SHT31;67490;52.086;5.122;2023-03-01T15:18:21;8.89;38.40
78212;SHT31;67490;52.086;5.122;2023-03-01T15:21:15;8.94;37.71
78212;SHT31;67490;52.086;5.122;2023-03-01T15:24:05;8.98;37.52
78212;SHT31;67490;52.086;5.122;2023-03-01T15:26:53;8.97;38.50
78212;SHT31;67490;52.086;5.122;2023-03-01T15:29:39;8.92;38.46
78212;SHT31;67490;52.086;5.122;2023-03-01T15:32:28;8.92;38.67
78212;SHT31;67490;52.086;5.122;2023-03-01T15:35:39;8.94;39.36
78212;SHT31;67490;52.086;5.122;2023-03-01T15:38:31;8.97;38.34
78212;SHT31;67490;52.086;5.122;2023-03-01T15:41:25;9.05;38.56
78212;SHT31;67490;52.086;5.122;2023-03-01T15:44:25;9.07;37.99
78212;SHT31;67490;52.086;5.122;2023-03-01T15:47:28;9.01;37.84
78212;SHT31;67490;52.086;5.122;2023-03-01T15:50:19;8.97;38.06
78212;SHT31;67490;52.086;5.122;2023-03-01T15:53:07;8.88;38.18
78212;SHT31;67490;52.086;5.122;2023-03-01T15:55:51;8.88;37.42
78212;SHT31;67490;52.086;5.122;2023-03-01T15:58:36;9.04;37.65
78212;SHT31;67490;52.086;5.122;2023-03-01T16:01:22;9.14;37.52
78212;SHT31;67490;52.086;5.122;2023-03-01T16:04:06;9.05;37.72
78212;SHT31;67490;52.086;5.122;2023-03-01T16:06:51;8.92;38.12
78212;SHT31;67490;52.086;5.122;2023-03-01T16:09:39;8.88;38.79
78212;SHT31;67490;52.086;5.122;2023-03-01T16:12:24;8.94;38.96
78212;SHT31;67490;52.086;5.122;2023-03-01T16:15:15;8.80;38.85
78212;SHT31;67490;52.086;5.122;2023-03-01T16:18:02;8.76;38.94
78212;SHT31;67490;52.086;5.122;2023-03-01T16:20:47;8.85;38.70
78212;SHT31;67490;52.086;5.122;2023-03-01T16:23:32;8.78;39.86
78212;SHT31;67490;52.086;5.122;2023-03-01T16:26:17;8.71;41.99
78212;SHT31;67490;52.086;5.122;2023-03-01T16:29:02;8.60;40.80
78212;SHT31;67490;52.086;5.122;2023-03-01T16:31:47;8.60;40.74
78212;SHT31;67490;52.086;5.122;2023-03-01T16:34:33;8.54;40.55
78212;SHT31;67490;52.086;5.122;2023-03-01T16:37:17;8.63;40.70
78212;SHT31;67490;52.086;5.122;2023-03-01T16:40:05;8.67;40.76
78212;SHT31;67490;52.086;5.122;2023-03-01T16:42:49;8.64;41.51
78212;SHT31;67490;52.086;5.122;2023-03-01T16:45:34;8.64;40.50
78212;SHT31;67490;52.086;5.122;2023-03-01T16:48:19;8.70;40.55
78212;SHT31;67490;52.086;5.122;2023-03-01T16:51:06;8.43;41.58
78212;SHT31;67490;52.086;5.122;2023-03-01T16:53:51;8.61;40.70
78212;SHT31;67490;52.086;5.122;2023-03-01T16:56:35;8.46;41.24
78212;SHT31;67490;52.086;5.122;2023-03-01T16:59:22;8.50;41.32
78212;SHT31;67490;52.086;5.122;2023-03-01T17:02:10;8.35;41.71
78212;SHT31;67490;52.086;5.122;2023-03-01T17:04:56;8.32;41.78
78212;SHT31;67490;52.086;5.122;2023-03-01T17:07:42;8.16;41.73
78212;SHT31;67490;52.086;5.122;2023-03-01T17:10:27;8.24;41.81
78212;SHT31;67490;52.086;5.122;2023-03-01T17:13:11;8.29;41.75
78212;SHT31;67490;52.086;5.122;2023-03-01T17:15:56;8.32;42.10
78212;SHT31;67490;52.086;5.122;2023-03-01T17:18:40;8.12;43.37
78212;SHT31;67490;52.086;5.122;2023-03-01T17:21:25;8.25;42.54
78212;SHT31;67490;52.086;5.122;2023-03-01T17:24:11;8.15;44.22
78212;SHT31;67490;52.086;5.122;2023-03-01T17:26:56;8.30;43.85
78212;SHT31;67490;52.086;5.122;2023-03-01T17:29:41;8.26;43.36
78212;SHT31;67490;52.086;5.122;2023-03-01T17:32:25;8.37;43.33
78212;SHT31;67490;52.086;5.122;2023-03-01T17:35:10;8.25;45.46
78212;SHT31;67490;52.086;5.122;2023-03-01T17:37:55;8.02;45.98
78212;SHT31;67490;52.086;5.122;2023-03-01T17:40:41;8.10;42.89
78212;SHT31;67490;52.086;5.122;2023-03-01T17:43:26;7.96;43.62
78212;SHT31;67490;52.086;5.122;2023-03-01T17:46:11;7.95;44.41
78212;SHT31;67490;52.086;5.122;2023-03-01T17:48:55;8.03;45.83
78212;SHT31;67490;52.086;5.122;2023-03-01T17:51:40;8.13;43.22
78212;SHT31;67490;52.086;5.122;2023-03-01T17:54:24;7.92;46.58
78212;SHT31;67490;52.086;5.122;2023-03-01T17:57:10;7.89;43.53
78212;SHT31;67490;52.086;5.122;2023-03-01T17:59:56;7.85;43.49
78212;SHT31;67490;52.086;5.122;2023-03-01T18:02:42;7.65;45.12
78212;SHT31;67490;52.086;5.122;2023-03-01T18:05:30;7.70;44.88
78212;SHT31;67490;52.086;5.122;2023-03-01T18:08:14;7.75;44.34
78212;SHT31;67490;52.086;5.122;2023-03-01T18:10:59;7.77;44.42
78212;SHT31;67490;52.086;5.122;2023-03-01T18:13:46;7.65;47.03